Terminal Aerodrome Forecast
Issued by NWS Duluth, MN

Home | Current Version | Previous Version | Text Only | Print | Product List | Glossary On
Versions: 1 2 3 4 5 6 7 8 9 10 11 12 13 14 15 16 17 18 19 20 21 22 23 24 25 26 27 28 29 30
903
FTUS43 KDLH 221052 AAC
TAFDLH
TAF AMD
KDLH 221052Z 2211/2306 14004KT P6SM SCT035 BKN060
     FM221200 15006KT 4SM -TSRA BR SCT015CB BKN050CB
      TEMPO 2212/2214 VRB15G30KT 3SM +TSRA BR SCT010 BKN020CB
     FM221400 15009KT P6SM VCSH SCT050 BKN100
     FM221800 15010KT P6SM SCT050 BKN120
     FM230200 17011KT P6SM SCT100 BKN150 WS015/19045KT=

USA.gov is the U.S. government's official web portal to all federal, state and local government web resources and services.